Time;durP1;ratioP1;P1;durP2;ratioP2;P2;SDS_P1;SDS_P2;PMS_P1;PMS_P2;Temp;Humidity;BMP_temperature;BMP_pressure;BME280_temperature;BME280_humidity;BME280_pressure;Samples;Min_cycle;Max_cycle;Signal;HPM_P1;HPM_P2
2022/07/16 00:01:28;;;;;;;;;;;18.90;81.90;;;;;;4988414;28;19925;-80
2022/07/16 00:03:57;;;;;;;;;;;18.80;81.70;;;;;;4970831;28;19930;-80
2022/07/16 00:06:26;;;;;;;;;;;18.90;81.40;;;;;;5016013;28;19935;-81
2022/07/16 00:08:54;;;;;;;;;;;18.80;81.40;;;;;;5002002;28;19932;-81
2022/07/16 00:11:22;;;;;;;;;;;18.80;81.30;;;;;;4970965;28;19925;-81
2022/07/16 00:13:51;;;;;;;;;;;18.90;82.50;;;;;;5004950;28;19926;-83
2022/07/16 00:16:19;;;;;;;;;;;18.70;81.30;;;;;;4989230;28;19933;-81
2022/07/16 00:21:34;;;;;;;;;;;18.70;82.60;;;;;;5010659;28;20394;-81
2022/07/16 00:24:03;;;;;;;;;;;18.60;82.60;;;;;;5009410;28;19937;-80
2022/07/16 00:26:31;;;;;;;;;;;18.60;82.60;;;;;;4972455;28;19940;-80
2022/07/16 00:28:59;;;;;;;;;;;18.90;83.90;;;;;;4958212;28;19949;-81
2022/07/16 00:31:27;;;;;;;;;;;17.80;82.50;;;;;;5007273;28;19936;-81
2022/07/16 00:33:55;;;;;;;;;;;18.50;83.20;;;;;;5005113;28;19930;-81
2022/07/16 00:36:23;;;;;;;;;;;18.40;82.40;;;;;;4987785;28;19929;-82
2022/07/16 00:38:52;;;;;;;;;;;18.40;82.80;;;;;;4992623;28;19926;-81
2022/07/16 00:41:20;;;;;;;;;;;18.40;82.30;;;;;;4969947;28;19926;-81
2022/07/16 00:43:53;;;;;;;;;;;18.40;83.40;;;;;;4985196;28;19936;-81
2022/07/16 00:46:22;;;;;;;;;;;18.30;82.40;;;;;;4953171;28;19936;-80
2022/07/16 00:48:51;;;;;;;;;;;18.40;82.70;;;;;;4949406;28;19931;-80
2022/07/16 00:51:19;;;;;;;;;;;18.30;82.60;;;;;;4969008;28;19930;-80
2022/07/16 00:53:47;;;;;;;;;;;18.30;83.70;;;;;;4984616;28;19933;-80
2022/07/16 00:56:16;;;;;;;;;;;18.20;83.20;;;;;;4969087;28;19930;-80
2022/07/16 00:58:45;;;;;;;;;;;18.40;83.50;;;;;;4968056;28;20018;-80
2022/07/16 01:01:14;;;;;;;;;;;18.10;82.60;;;;;;4985476;28;19930;-80
2022/07/16 01:03:43;;;;;;;;;;;18.10;83.60;;;;;;4984338;28;19930;-80
2022/07/16 01:06:12;;;;;;;;;;;18.20;83.30;;;;;;4952585;28;19930;-81
2022/07/16 01:08:43;;;;;;;;;;;18.20;83.50;;;;;;4952100;28;19930;-80
2022/07/16 01:11:12;;;;;;;;;;;18.00;83.50;;;;;;4985915;28;19930;-80
2022/07/16 01:13:42;;;;;;;;;;;17.90;83.40;;;;;;4984626;28;19930;-80
2022/07/16 01:16:12;;;;;;;;;;;17.70;83.40;;;;;;4968818;28;19930;-80
2022/07/16 01:18:42;;;;;;;;;;;18.30;84.30;;;;;;4983924;28;19933;-81
2022/07/16 01:21:13;;;;;;;;;;;17.90;84.80;;;;;;4984225;28;19932;-81
2022/07/16 01:23:42;;;;;;;;;;;17.80;84.70;;;;;;4968050;28;20367;-80
2022/07/16 01:26:11;;;;;;;;;;;18.00;84.80;;;;;;4964938;28;19937;-80
2022/07/16 01:28:39;;;;;;;;;;;17.70;85.00;;;;;;4944476;28;20383;-81
2022/07/16 02:04:36;;;;;;;;;;;17.30;86.50;;;;;;4970203;28;19937;-81
2022/07/16 02:07:05;;;;;;;;;;;17.30;87.80;;;;;;4969270;28;19926;-80
2022/07/16 02:09:34;;;;;;;;;;;17.30;86.90;;;;;;4985675;28;19930;-81
2022/07/16 02:12:04;;;;;;;;;;;17.20;87.70;;;;;;4989016;28;19926;-80
2022/07/16 02:14:33;;;;;;;;;;;17.20;86.70;;;;;;4949470;29;19930;-80
2022/07/16 02:17:04;;;;;;;;;;;17.40;87.40;;;;;;4980293;28;19930;-81
2022/07/16 02:19:36;;;;;;;;;;;17.20;87.30;;;;;;4985249;28;19926;-80
2022/07/16 02:22:06;;;;;;;;;;;17.20;87.70;;;;;;4952262;28;19926;-80
2022/07/16 02:24:35;;;;;;;;;;;17.10;87.70;;;;;;4985326;28;19932;-81
2022/07/16 02:27:03;;;;;;;;;;;17.10;88.70;;;;;;4989223;28;19927;-81
2022/07/16 02:29:31;;;;;;;;;;;17.60;89.40;;;;;;4973081;28;19934;-81
2022/07/16 02:31:59;;;;;;;;;;;17.10;88.30;;;;;;4970432;28;19933;-80
2022/07/16 02:34:27;;;;;;;;;;;17.00;88.40;;;;;;4973096;28;19934;-79
2022/07/16 02:36:55;;;;;;;;;;;16.90;90.00;;;;;;4982525;28;19927;-81
2022/07/16 02:39:24;;;;;;;;;;;16.90;89.90;;;;;;4958297;28;19926;-80
2022/07/16 02:41:52;;;;;;;;;;;17.10;89.00;;;;;;4957435;28;19926;-80
2022/07/16 02:44:21;;;;;;;;;;;16.80;89.00;;;;;;4967741;28;19937;-81
2022/07/16 02:46:49;;;;;;;;;;;16.80;90.00;;;;;;4989031;28;19926;-80
2022/07/16 02:49:17;;;;;;;;;;;16.90;88.90;;;;;;4981007;28;19942;-81
2022/07/16 02:51:45;;;;;;;;;;;16.90;90.20;;;;;;4985610;28;19941;-81
2022/07/16 02:54:13;;;;;;;;;;;16.80;89.40;;;;;;4973102;28;19926;-80
2022/07/16 02:56:41;;;;;;;;;;;16.80;89.20;;;;;;4984149;28;19930;-80
2022/07/16 02:59:10;;;;;;;;;;;17.00;89.70;;;;;;4956265;28;19955;-82
2022/07/16 03:01:38;;;;;;;;;;;16.90;89.10;;;;;;4982719;28;19926;-79
2022/07/16 03:04:06;;;;;;;;;;;16.80;90.00;;;;;;4962323;28;19932;-80
2022/07/16 03:06:35;;;;;;;;;;;16.70;89.70;;;;;;4960049;28;19927;-80
2022/07/16 03:09:03;;;;;;;;;;;16.70;89.60;;;;;;4957207;29;19932;-80
2022/07/16 03:11:32;;;;;;;;;;;17.10;90.40;;;;;;4971838;28;19926;-81
2022/07/16 03:14:08;;;;;;;;;;;16.80;89.50;;;;;;4969099;29;20373;-81
2022/07/16 03:16:38;;;;;;;;;;;16.80;89.60;;;;;;4988854;28;19926;-80
2022/07/16 03:19:06;;;;;;;;;;;16.60;90.00;;;;;;4971875;28;19930;-80
2022/07/16 03:21:34;;;;;;;;;;;16.60;90.00;;;;;;4987284;28;19933;-81
2022/07/16 03:24:04;;;;;;;;;;;16.60;89.80;;;;;;4971662;28;19941;-80
2022/07/16 03:26:33;;;;;;;;;;;16.60;90.10;;;;;;4970920;28;20040;-80
2022/07/16 03:29:01;;;;;;;;;;;16.50;90.10;;;;;;4968095;28;19927;-80
2022/07/16 03:31:29;;;;;;;;;;;16.50;90.70;;;;;;4955317;28;19933;-80
2022/07/16 03:33:57;;;;;;;;;;;17.50;90.90;;;;;;4972083;28;19941;-80
2022/07/16 03:36:26;;;;;;;;;;;16.10;90.20;;;;;;4970722;28;19927;-81
2022/07/16 03:39:13;;;;;;;;;;;16.40;90.30;;;;;;4948506;28;19926;-82
2022/07/16 03:41:41;;;;;;;;;;;16.40;90.30;;;;;;4974383;28;19927;-82
2022/07/16 03:44:11;;;;;;;;;;;16.40;90.30;;;;;;4968703;28;19934;-80
2022/07/16 03:46:40;;;;;;;;;;;16.40;90.40;;;;;;4971746;28;19926;-81
2022/07/16 03:49:08;;;;;;;;;;;16.40;90.40;;;;;;4971401;28;19934;-80
2022/07/16 03:51:36;;;;;;;;;;;16.40;90.60;;;;;;4971575;28;19947;-80
2022/07/16 03:54:05;;;;;;;;;;;16.30;90.80;;;;;;4981400;28;19926;-80
2022/07/16 03:56:32;;;;;;;;;;;16.30;90.50;;;;;;4987331;28;19945;-81
2022/07/16 03:59:01;;;;;;;;;;;16.30;91.10;;;;;;4968442;28;19934;-80
2022/07/16 04:01:30;;;;;;;;;;;16.20;90.60;;;;;;4962984;29;19927;-81
2022/07/16 04:03:58;;;;;;;;;;;15.20;90.60;;;;;;4982593;28;19940;-80
2022/07/16 04:06:26;;;;;;;;;;;16.20;90.70;;;;;;4969154;28;19926;-81
2022/07/16 04:08:54;;;;;;;;;;;16.20;90.80;;;;;;4964049;28;19933;-80
2022/07/16 04:11:22;;;;;;;;;;;14.90;91.10;;;;;;4976792;28;19937;-80
2022/07/16 04:13:50;;;;;;;;;;;14.90;90.80;;;;;;4965746;28;20002;-80
2022/07/16 04:16:21;;;;;;;;;;;16.10;91.10;;;;;;4987851;28;19934;-80
2022/07/16 04:18:51;;;;;;;;;;;16.10;91.20;;;;;;4966970;29;19933;-81
2022/07/16 04:21:19;;;;;;;;;;;16.20;91.10;;;;;;4985658;28;19926;-81
2022/07/16 04:23:47;;;;;;;;;;;16.10;91.30;;;;;;4967517;29;19931;-81
2022/07/16 04:26:15;;;;;;;;;;;16.30;91.70;;;;;;4983779;28;19930;-81
2022/07/16 04:28:43;;;;;;;;;;;16.10;91.60;;;;;;4983719;28;20488;-83
2022/07/16 04:31:11;;;;;;;;;;;16.20;91.40;;;;;;4966801;29;19935;-82
2022/07/16 04:33:43;;;;;;;;;;;16.10;91.40;;;;;;4966887;28;19926;-80
2022/07/16 04:36:18;;;;;;;;;;;15.50;91.20;;;;;;4952023;28;19933;-82
2022/07/16 04:38:48;;;;;;;;;;;16.00;91.40;;;;;;4988106;28;19937;-81
2022/07/16 04:41:24;;;;;;;;;;;16.00;91.50;;;;;;4968260;28;19937;-80
2022/07/16 04:43:53;;;;;;;;;;;16.20;91.50;;;;;;4950925;29;19926;-81
2022/07/16 04:46:22;;;;;;;;;;;16.00;91.80;;;;;;4984861;28;19930;-80
2022/07/16 04:48:51;;;;;;;;;;;16.00;92.20;;;;;;4951160;28;19930;-80
2022/07/16 04:51:18;;;;;;;;;;;15.90;92.00;;;;;;4985889;28;19949;-80
2022/07/16 04:53:47;;;;;;;;;;;15.90;92.30;;;;;;4950273;29;19927;-80
2022/07/16 04:56:15;;;;;;;;;;;16.10;92.10;;;;;;4980704;28;19932;-80
2022/07/16 04:58:43;;;;;;;;;;;16.00;92.30;;;;;;4981969;28;19926;-80
2022/07/16 05:01:12;;;;;;;;;;;16.10;92.50;;;;;;4965458;29;19934;-80
2022/07/16 05:03:39;;;;;;;;;;;16.00;92.10;;;;;;4995980;28;19944;-80
2022/07/16 05:06:08;;;;;;;;;;;16.10;92.20;;;;;;4967343;28;19931;-80
2022/07/16 05:08:36;;;;;;;;;;;16.00;91.90;;;;;;4997603;28;19934;-81
2022/07/16 05:11:10;;;;;;;;;;;16.10;91.90;;;;;;4998224;28;19936;-80
2022/07/16 05:13:38;;;;;;;;;;;15.70;91.90;;;;;;4985540;28;19937;-81
2022/07/16 05:16:07;;;;;;;;;;;16.10;92.10;;;;;;4979859;28;19930;-81
2022/07/16 05:18:38;;;;;;;;;;;16.10;92.30;;;;;;4967652;28;19926;-79
2022/07/16 05:21:07;;;;;;;;;;;16.10;92.70;;;;;;5000303;28;19926;-79
2022/07/16 05:23:36;;;;;;;;;;;16.20;92.30;;;;;;4981299;28;19926;-81
2022/07/16 05:26:03;;;;;;;;;;;16.20;92.40;;;;;;4978128;28;19964;-82
2022/07/16 05:28:31;;;;;;;;;;;16.20;92.50;;;;;;4984278;28;19930;-80
2022/07/16 05:31:00;;;;;;;;;;;16.30;92.50;;;;;;4994713;28;19930;-80
2022/07/16 05:33:28;;;;;;;;;;;16.30;92.40;;;;;;4984899;28;19930;-81
2022/07/16 05:35:56;;;;;;;;;;;16.40;92.40;;;;;;4978565;28;19926;-81
2022/07/16 05:38:27;;;;;;;;;;;16.40;92.30;;;;;;4985022;28;19928;-79
2022/07/16 05:40:56;;;;;;;;;;;16.50;92.20;;;;;;4994159;28;19930;-81
2022/07/16 05:43:23;;;;;;;;;;;16.50;92.00;;;;;;4984985;28;19927;-80
2022/07/16 05:45:52;;;;;;;;;;;16.60;92.40;;;;;;4984857;28;19926;-80
2022/07/16 05:48:20;;;;;;;;;;;16.80;92.30;;;;;;4999446;28;19932;-81
2022/07/16 05:50:49;;;;;;;;;;;17.00;92.40;;;;;;5004041;28;19930;-80
2022/07/16 05:53:17;;;;;;;;;;;16.70;92.00;;;;;;4994561;28;19930;-80
2022/07/16 05:55:45;;;;;;;;;;;16.70;92.20;;;;;;4960054;28;19937;-81
2022/07/16 05:58:13;;;;;;;;;;;16.80;91.80;;;;;;4983444;28;19933;-80
2022/07/16 06:00:41;;;;;;;;;;;17.00;92.10;;;;;;4978642;28;19930;-81
2022/07/16 06:03:10;;;;;;;;;;;17.70;92.50;;;;;;4987750;28;19937;-81
2022/07/16 06:05:38;;;;;;;;;;;16.90;92.00;;;;;;5000792;28;19930;-81
2022/07/16 06:08:06;;;;;;;;;;;17.10;91.80;;;;;;4999136;28;19933;-81
2022/07/16 06:10:34;;;;;;;;;;;17.10;91.50;;;;;;4984465;28;19936;-80
2022/07/16 06:13:03;;;;;;;;;;;17.10;92.10;;;;;;4998941;28;19926;-83
2022/07/16 06:15:30;;;;;;;;;;;17.10;91.40;;;;;;5002584;28;20020;-80
2022/07/16 06:17:58;;;;;;;;;;;17.30;91.70;;;;;;4997128;28;19933;-81
2022/07/16 06:20:27;;;;;;;;;;;17.20;91.50;;;;;;5002679;28;19926;-81
2022/07/16 06:22:56;;;;;;;;;;;16.30;91.40;;;;;;4988769;28;19936;-80
2022/07/16 06:25:24;;;;;;;;;;;17.30;91.10;;;;;;4967488;28;19926;-81
2022/07/16 06:27:53;;;;;;;;;;;17.30;91.50;;;;;;4942618;28;19936;-80
2022/07/16 06:30:21;;;;;;;;;;;17.30;91.20;;;;;;4988710;28;19938;-80
2022/07/16 06:32:52;;;;;;;;;;;17.50;91.20;;;;;;4980795;28;19930;-81
2022/07/16 06:35:21;;;;;;;;;;;17.40;91.20;;;;;;4988565;28;19930;-81
2022/07/16 06:37:48;;;;;;;;;;;17.50;91.20;;;;;;4988918;28;19936;-82
2022/07/16 06:40:17;;;;;;;;;;;17.60;91.50;;;;;;4990924;28;19951;-80
2022/07/16 06:42:46;;;;;;;;;;;17.60;91.00;;;;;;4987377;28;19932;-81
2022/07/16 06:45:17;;;;;;;;;;;17.70;91.00;;;;;;4999719;28;19930;-81
2022/07/16 06:47:45;;;;;;;;;;;17.70;90.90;;;;;;4979991;28;19936;-81
2022/07/16 06:50:13;;;;;;;;;;;17.80;90.90;;;;;;4970208;28;19926;-81
2022/07/16 06:52:42;;;;;;;;;;;17.80;90.90;;;;;;4980752;28;20221;-81
2022/07/16 06:55:10;;;;;;;;;;;17.90;90.60;;;;;;4985918;28;19934;-80
2022/07/16 06:57:38;;;;;;;;;;;17.70;90.50;;;;;;4986220;28;20025;-81
2022/07/16 07:00:07;;;;;;;;;;;16.40;90.40;;;;;;4987559;28;19926;-81
2022/07/16 07:02:35;;;;;;;;;;;18.00;90.40;;;;;;4985253;28;19934;-80
2022/07/16 07:05:03;;;;;;;;;;;18.10;90.50;;;;;;4981181;28;19930;-80
2022/07/16 07:07:32;;;;;;;;;;;18.10;90.60;;;;;;4982447;28;19930;-80
2022/07/16 07:10:00;;;;;;;;;;;18.80;90.70;;;;;;4987808;28;19926;-80
2022/07/16 07:12:28;;;;;;;;;;;18.40;90.90;;;;;;4985783;28;20282;-81
2022/07/16 07:14:57;;;;;;;;;;;18.30;90.40;;;;;;4994912;28;19930;-81
2022/07/16 07:17:27;;;;;;;;;;;18.50;90.40;;;;;;4984960;28;19930;-80
2022/07/16 07:19:57;;;;;;;;;;;20.30;91.30;;;;;;4997193;28;19926;-80
2022/07/16 07:22:26;;;;;;;;;;;18.50;90.20;;;;;;5001959;28;19926;-80
2022/07/16 07:24:54;;;;;;;;;;;18.50;90.20;;;;;;4995139;28;19932;-80
2022/07/16 07:27:22;;;;;;;;;;;18.60;90.00;;;;;;5001231;28;19930;-81
2022/07/16 07:29:50;;;;;;;;;;;18.70;90.10;;;;;;4995480;28;19941;-81
2022/07/16 07:32:19;;;;;;;;;;;17.80;89.50;;;;;;4986776;28;20394;-79
2022/07/16 07:34:47;;;;;;;;;;;18.80;89.90;;;;;;4976585;28;19930;-81
2022/07/16 07:37:17;;;;;;;;;;;18.80;90.20;;;;;;5002199;28;19926;-80
2022/07/16 07:39:45;;;;;;;;;;;18.90;90.00;;;;;;4978275;28;19932;-80
2022/07/16 07:42:15;;;;;;;;;;;19.00;89.90;;;;;;4984244;28;19937;-81
2022/07/16 07:44:43;;;;;;;;;;;19.20;89.80;;;;;;4977898;28;19933;-81
2022/07/16 07:47:13;;;;;;;;;;;19.10;89.40;;;;;;5001161;28;19941;-81
2022/07/16 07:49:41;;;;;;;;;;;19.20;89.50;;;;;;4991473;28;19937;-80
2022/07/16 07:52:13;;;;;;;;;;;19.20;89.70;;;;;;4983221;28;19930;-81
2022/07/16 07:54:42;;;;;;;;;;;19.20;88.70;;;;;;4983839;28;19930;-81
2022/07/16 07:57:10;;;;;;;;;;;20.20;88.30;;;;;;4985026;28;19926;-81
2022/07/16 07:59:38;;;;;;;;;;;19.40;89.00;;;;;;4986367;28;19934;-80
2022/07/16 08:02:07;;;;;;;;;;;19.50;88.10;;;;;;4995980;28;20329;-81
2022/07/16 08:04:36;;;;;;;;;;;19.60;87.70;;;;;;5004910;28;19936;-81
2022/07/16 08:07:05;;;;;;;;;;;19.70;87.20;;;;;;5005358;28;19940;-81
2022/07/16 08:09:35;;;;;;;;;;;19.80;87.10;;;;;;4982399;28;19925;-82
2022/07/16 08:12:03;;;;;;;;;;;20.20;86.40;;;;;;4980518;28;19937;-80
2022/07/16 08:14:31;;;;;;;;;;;20.00;86.10;;;;;;5003523;28;19930;-83
2022/07/16 08:17:01;;;;;;;;;;;20.10;86.60;;;;;;5001751;28;19926;-82
2022/07/16 08:19:30;;;;;;;;;;;20.10;86.00;;;;;;4963842;28;19933;-82
2022/07/16 08:22:00;;;;;;;;;;;20.20;86.80;;;;;;4980386;28;20145;-82
2022/07/16 08:27:16;;;;;;;;;;;20.40;86.20;;;;;;5003035;28;19933;-80
2022/07/16 08:29:45;;;;;;;;;;;19.70;84.90;;;;;;5001302;28;19936;-81
2022/07/16 08:32:13;;;;;;;;;;;20.60;85.70;;;;;;5001934;28;19932;-80
2022/07/16 08:34:41;;;;;;;;;;;20.50;85.60;;;;;;4986252;28;19934;-81
2022/07/16 08:37:11;;;;;;;;;;;20.60;84.90;;;;;;4653191;28;9999913;-81
2022/07/16 08:39:42;;;;;;;;;;;20.10;84.70;;;;;;4967667;28;19941;-82
2022/07/16 08:42:11;;;;;;;;;;;20.70;84.10;;;;;;4949698;28;19929;-80
2022/07/16 08:44:40;;;;;;;;;;;20.80;84.80;;;;;;4953333;28;19934;-81
2022/07/16 08:47:11;;;;;;;;;;;20.80;84.20;;;;;;4998951;28;19929;-81
2022/07/16 08:49:42;;;;;;;;;;;21.00;83.30;;;;;;4999066;28;20104;-81
2022/07/16 08:52:13;;;;;;;;;;;21.10;83.60;;;;;;4994123;28;19946;-81
2022/07/16 08:54:42;;;;;;;;;;;21.10;82.80;;;;;;4992360;28;19941;-82
2022/07/16 08:57:18;;;;;;;;;;;21.30;82.90;;;;;;5001274;28;19932;-81
2022/07/16 08:59:46;;;;;;;;;;;21.40;83.60;;;;;;4986199;28;19937;-81
2022/07/16 09:02:15;;;;;;;;;;;21.50;82.60;;;;;;4982279;28;19933;-81
2022/07/16 09:04:43;;;;;;;;;;;21.50;82.60;;;;;;4975403;28;19936;-81
2022/07/16 09:07:12;;;;;;;;;;;21.60;82.60;;;;;;4973464;28;19937;-82
2022/07/16 09:09:41;;;;;;;;;;;21.70;81.60;;;;;;4984613;28;19942;-82
2022/07/16 09:12:09;;;;;;;;;;;21.80;80.70;;;;;;4998447;28;19940;-80
2022/07/16 09:14:42;;;;;;;;;;;21.80;82.40;;;;;;4997599;28;19940;-81
2022/07/16 09:17:16;;;;;;;;;;;21.90;80.60;;;;;;4980143;28;19926;-82
2022/07/16 09:19:48;;;;;;;;;;;22.00;80.70;;;;;;4984146;28;19930;-82
2022/07/16 09:22:16;;;;;;;;;;;22.10;80.10;;;;;;5001206;28;19934;-84
2022/07/16 09:24:54;;;;;;;;;;;22.10;80.80;;;;;;4982692;28;19926;-84
2022/07/16 09:27:25;;;;;;;;;;;22.10;80.10;;;;;;4968488;28;20166;-82
2022/07/16 09:29:58;;;;;;;;;;;20.80;78.50;;;;;;4951195;28;19934;-80
2022/07/16 09:32:29;;;;;;;;;;;22.20;79.30;;;;;;4979533;28;19934;-81
2022/07/16 09:35:11;;;;;;;;;;;22.30;80.10;;;;;;4993039;28;19945;-83
2022/07/16 09:37:55;;;;;;;;;;;22.40;79.50;;;;;;4983259;28;19937;-81
2022/07/16 09:40:31;;;;;;;;;;;23.10;79.30;;;;;;4995451;28;19941;-80
2022/07/16 09:43:25;;;;;;;;;;;22.60;78.30;;;;;;4994902;28;20115;-80
2022/07/16 09:46:02;;;;;;;;;;;22.70;78.30;;;;;;4972236;28;19926;-83
2022/07/16 09:48:37;;;;;;;;;;;22.80;77.50;;;;;;4971486;28;19926;-83
2022/07/16 09:51:13;;;;;;;;;;;22.90;77.90;;;;;;4994653;28;19930;-82
2022/07/16 09:53:43;;;;;;;;;;;22.90;77.30;;;;;;4997217;28;19937;-83
2022/07/16 09:56:23;;;;;;;;;;;23.00;77.60;;;;;;4976770;28;19944;-83
2022/07/16 09:58:58;;;;;;;;;;;23.00;77.40;;;;;;4978413;28;19933;-83
2022/07/16 10:01:33;;;;;;;;;;;23.20;77.10;;;;;;4966319;28;19934;-85
2022/07/16 10:04:03;;;;;;;;;;;23.30;76.30;;;;;;4979649;28;19930;-84
2022/07/16 10:06:31;;;;;;;;;;;23.40;76.30;;;;;;4965310;28;19953;-85
2022/07/16 10:09:00;;;;;;;;;;;23.60;75.80;;;;;;4981066;28;19934;-83
2022/07/16 10:11:28;;;;;;;;;;;23.70;75.90;;;;;;4957646;28;19933;-85
2022/07/16 10:14:02;;;;;;;;;;;23.70;75.10;;;;;;4980931;28;19937;-82
2022/07/16 10:16:41;;;;;;;;;;;23.70;75.50;;;;;;4966532;28;19933;-85
2022/07/16 10:19:09;;;;;;;;;;;23.70;75.20;;;;;;4977258;28;19922;-83
2022/07/16 10:21:38;;;;;;;;;;;23.80;76.10;;;;;;4972979;28;19930;-84
2022/07/16 10:24:08;;;;;;;;;;;23.90;74.80;;;;;;4947629;28;19940;-84
2022/07/16 10:26:36;;;;;;;;;;;24.00;74.80;;;;;;4980437;28;19930;-84
2022/07/16 10:29:05;;;;;;;;;;;24.10;74.90;;;;;;4979708;28;19933;-84
2022/07/16 10:31:33;;;;;;;;;;;24.20;74.20;;;;;;4968764;28;19934;-80
2022/07/16 10:34:14;;;;;;;;;;;24.40;74.20;;;;;;4973327;28;19934;-83
2022/07/16 10:36:47;;;;;;;;;;;24.60;72.80;;;;;;4959318;28;19941;-83
2022/07/16 10:39:17;;;;;;;;;;;26.30;74.10;;;;;;4974516;28;19941;-84
2022/07/16 10:41:53;;;;;;;;;;;24.90;71.90;;;;;;4981166;28;19945;-83
2022/07/16 10:44:40;;;;;;;;;;;24.90;72.20;;;;;;4980794;28;19930;-84
2022/07/16 10:47:12;;;;;;;;;;;25.00;71.60;;;;;;4983557;28;19934;-84
2022/07/16 10:49:41;;;;;;;;;;;25.10;72.60;;;;;;4960340;28;19926;-84
2022/07/16 10:52:11;;;;;;;;;;;25.10;72.10;;;;;;4975973;28;19934;-83
2022/07/16 10:54:39;;;;;;;;;;;25.20;71.30;;;;;;4976098;28;19926;-84
2022/07/16 10:57:09;;;;;;;;;;;25.40;72.40;;;;;;4978563;28;19937;-84
2022/07/16 10:59:42;;;;;;;;;;;25.60;71.40;;;;;;4983439;28;19949;-83
2022/07/16 11:02:12;;;;;;;;;;;25.80;70.30;;;;;;4979542;28;19938;-84
2022/07/16 11:04:44;;;;;;;;;;;26.00;69.20;;;;;;4992021;28;19928;-84
2022/07/16 11:07:22;;;;;;;;;;;26.10;68.90;;;;;;4950441;28;19926;-84
2022/07/16 11:09:50;;;;;;;;;;;26.20;69.00;;;;;;4968205;28;19934;-83
2022/07/16 11:12:20;;;;;;;;;;;26.20;68.90;;;;;;4984075;28;19941;-82
2022/07/16 11:14:49;;;;;;;;;;;26.30;68.00;;;;;;4975703;28;19929;-83
2022/07/16 11:17:18;;;;;;;;;;;26.40;68.00;;;;;;4978092;28;19945;-84
2022/07/16 11:19:50;;;;;;;;;;;25.60;66.60;;;;;;4992657;28;19926;-84
2022/07/16 11:22:28;;;;;;;;;;;26.50;67.40;;;;;;5000818;28;19930;-83
2022/07/16 11:25:00;;;;;;;;;;;26.10;67.20;;;;;;4969458;28;19926;-84
2022/07/16 11:27:31;;;;;;;;;;;26.40;67.60;;;;;;4984432;28;19934;-82
2022/07/16 11:33:35;;;;;;;;;;;26.70;67.50;;;;;;4961788;28;19934;-84
2022/07/16 11:36:03;;;;;;;;;;;27.00;65.30;;;;;;4976783;28;20388;-84
2022/07/16 11:38:32;;;;;;;;;;;27.10;66.30;;;;;;4961845;28;19930;-85
2022/07/16 11:41:00;;;;;;;;;;;27.50;65.20;;;;;;4940764;29;19934;-83
2022/07/16 11:43:29;;;;;;;;;;;27.30;66.60;;;;;;4977609;28;21088;-83
2022/07/16 11:45:57;;;;;;;;;;;27.30;65.10;;;;;;4959620;28;20128;-83
2022/07/16 11:48:35;;;;;;;;;;;27.40;65.70;;;;;;4958827;28;19941;-83
2022/07/16 11:51:07;;;;;;;;;;;27.50;65.00;;;;;;4977389;28;19930;-86
2022/07/16 11:53:39;;;;;;;;;;;27.50;64.30;;;;;;4980993;28;19949;-84
2022/07/16 11:56:08;;;;;;;;;;;27.70;65.40;;;;;;4966029;28;19934;-84
2022/07/16 11:58:36;;;;;;;;;;;27.90;64.10;;;;;;4973438;28;19930;-82
2022/07/16 12:01:04;;;;;;;;;;;27.90;63.70;;;;;;4949049;28;19930;-83
2022/07/16 12:03:32;;;;;;;;;;;27.90;65.00;;;;;;4969870;28;19934;-84
2022/07/16 12:06:06;;;;;;;;;;;28.00;64.90;;;;;;4985857;28;20009;-84
2022/07/16 12:08:36;;;;;;;;;;;28.00;64.50;;;;;;4991786;28;19926;-83
2022/07/16 12:11:07;;;;;;;;;;;28.20;64.90;;;;;;4952136;28;19930;-83
2022/07/16 12:13:50;;;;;;;;;;;28.50;64.90;;;;;;4988198;28;20515;-84
2022/07/16 12:16:24;;;;;;;;;;;28.50;64.20;;;;;;4996194;28;19927;-82
2022/07/16 12:19:03;;;;;;;;;;;28.60;63.50;;;;;;4979515;28;19933;-83
2022/07/16 12:21:32;;;;;;;;;;;28.60;63.70;;;;;;4982749;28;19935;-83
2022/07/16 12:24:00;;;;;;;;;;;28.80;63.70;;;;;;4980056;28;20301;-84
2022/07/16 12:26:33;;;;;;;;;;;28.90;63.60;;;;;;4960880;28;19934;-83
2022/07/16 12:29:04;;;;;;;;;;;28.90;63.10;;;;;;4984524;28;19941;-83
2022/07/16 12:31:35;;;;;;;;;;;28.90;62.60;;;;;;4953448;28;20334;-82
2022/07/16 12:34:05;;;;;;;;;;;28.90;62.30;;;;;;4989013;28;19937;-83
2022/07/16 12:36:34;;;;;;;;;;;28.80;62.30;;;;;;4985033;28;20197;-83
2022/07/16 12:39:07;;;;;;;;;;;29.00;62.50;;;;;;4976653;28;19935;-82
2022/07/16 12:41:40;;;;;;;;;;;28.60;61.90;;;;;;4970782;28;19933;-82
2022/07/16 12:44:13;;;;;;;;;;;29.30;62.20;;;;;;4984151;28;19936;-81
2022/07/16 12:46:46;;;;;;;;;;;29.50;61.50;;;;;;4975175;28;19931;-82
2022/07/16 12:49:24;;;;;;;;;;;29.50;62.20;;;;;;4962223;28;19940;-82
2022/07/16 12:52:15;;;;;;;;;;;29.40;62.50;;;;;;4967310;28;19934;-84
2022/07/16 13:01:30;;;;;;;;;;;29.30;62.70;;;;;;4967731;28;19933;-85
2022/07/16 13:03:59;;;;;;;;;;;29.20;63.70;;;;;;4997205;28;19922;-84
2022/07/16 13:06:43;;;;;;;;;;;29.30;62.30;;;;;;4983517;28;19934;-84
2022/07/16 13:09:26;;;;;;;;;;;29.50;62.30;;;;;;4997639;28;19926;-84
2022/07/16 13:12:13;;;;;;;;;;;29.90;61.80;;;;;;4983460;28;19937;-85
2022/07/16 13:15:01;;;;;;;;;;;29.80;62.80;;;;;;4971434;28;19930;-85
2022/07/16 13:17:41;;;;;;;;;;;28.10;61.50;;;;;;4945518;28;19930;-84
2022/07/16 13:21:02;;;;;;;;;;;29.60;63.70;;;;;;4955754;28;19926;-86
2022/07/16 13:27:30;;;;;;;;;;;29.70;62.50;;;;;;4955457;28;20385;-92
2022/07/16 13:30:00;;;;;;;;;;;30.10;61.80;;;;;;4984824;28;20293;-91
2022/07/16 13:32:46;;;;;;;;;;;30.20;62.10;;;;;;4965929;29;19927;-90
2022/07/16 13:35:17;;;;;;;;;;;30.30;62.10;;;;;;4956562;28;19926;-90
2022/07/16 13:38:01;;;;;;;;;;;30.20;61.80;;;;;;4980920;28;19937;-90
2022/07/16 13:40:29;;;;;;;;;;;30.30;62.20;;;;;;4956751;29;19927;-90
2022/07/16 13:43:03;;;;;;;;;;;30.30;63.30;;;;;;4970257;28;19941;-89
2022/07/16 13:45:31;;;;;;;;;;;30.60;62.70;;;;;;4949779;29;19926;-90
2022/07/16 13:48:05;;;;;;;;;;;30.60;61.90;;;;;;4968740;28;19941;-91
2022/07/16 13:50:44;;;;;;;;;;;30.50;62.00;;;;;;4958157;29;19927;-89
2022/07/16 13:53:33;;;;;;;;;;;30.10;62.60;;;;;;4983490;28;19945;-90
2022/07/16 13:56:20;;;;;;;;;;;29.60;62.90;;;;;;4944153;29;19930;-90
2022/07/16 13:59:01;;;;;;;;;;;29.50;64.00;;;;;;4940733;29;19934;-91
2022/07/16 14:01:46;;;;;;;;;;;29.10;64.50;;;;;;4980697;28;20331;-90
2022/07/16 14:04:24;;;;;;;;;;;29.00;64.80;;;;;;4962065;29;19934;-90
2022/07/16 14:07:04;;;;;;;;;;;29.60;65.50;;;;;;4950786;29;19930;-89
2022/07/16 14:09:37;;;;;;;;;;;29.30;64.90;;;;;;4972076;28;19926;-91
2022/07/16 14:12:20;;;;;;;;;;;29.60;65.10;;;;;;4970544;28;19927;-91
2022/07/16 14:15:23;;;;;;;;;;;29.10;64.00;;;;;;4961659;28;19926;-90
2022/07/16 14:18:07;;;;;;;;;;;30.20;64.70;;;;;;4960773;29;19926;-91
2022/07/16 14:20:45;;;;;;;;;;;30.20;63.80;;;;;;4942610;29;20199;-89
2022/07/16 14:23:31;;;;;;;;;;;31.10;63.50;;;;;;4951305;29;19934;-90
2022/07/16 14:26:02;;;;;;;;;;;31.60;63.40;;;;;;4952887;29;19931;-91
2022/07/16 14:28:34;;;;;;;;;;;31.90;63.00;;;;;;4953924;28;19926;-90
2022/07/16 14:31:19;;;;;;;;;;;32.10;63.20;;;;;;4952304;29;19930;-90
2022/07/16 14:34:05;;;;;;;;;;;32.20;62.50;;;;;;4987802;28;19922;-91
2022/07/16 14:36:43;;;;;;;;;;;32.20;62.90;;;;;;4978827;28;19931;-91
2022/07/16 14:39:28;;;;;;;;;;;32.40;62.70;;;;;;4953334;29;20309;-91
2022/07/16 14:41:58;;;;;;;;;;;32.60;62.30;;;;;;4972895;28;19927;-91
2022/07/16 14:44:27;;;;;;;;;;;32.80;62.20;;;;;;4948464;28;19938;-91
2022/07/16 14:46:54;;;;;;;;;;;33.10;61.30;;;;;;4952328;29;19930;-90
2022/07/16 14:49:27;;;;;;;;;;;33.40;61.00;;;;;;4951289;29;19935;-90
2022/07/16 14:51:56;;;;;;;;;;;33.40;61.70;;;;;;4970069;28;19941;-91
2022/07/16 14:54:24;;;;;;;;;;;33.30;61.80;;;;;;4961136;29;19942;-91
2022/07/16 14:56:54;;;;;;;;;;;33.50;61.30;;;;;;4973063;28;19937;-91
2022/07/16 14:59:24;;;;;;;;;;;34.60;61.90;;;;;;4964683;29;20393;-91
2022/07/16 15:01:57;;;;;;;;;;;34.10;62.00;;;;;;4952037;28;19934;-91
2022/07/16 15:04:27;;;;;;;;;;;33.80;60.90;;;;;;4933982;29;19950;-91
2022/07/16 15:06:57;;;;;;;;;;;35.00;61.80;;;;;;4954729;29;20182;-91
2022/07/16 15:09:27;;;;;;;;;;;33.90;60.60;;;;;;4963050;28;20153;-91
2022/07/16 15:11:57;;;;;;;;;;;33.70;59.60;;;;;;4971620;28;19926;-91
2022/07/16 15:14:27;;;;;;;;;;;34.10;59.50;;;;;;4976111;28;19926;-92
2022/07/16 15:17:08;;;;;;;;;;;33.90;59.90;;;;;;4971892;28;19944;-90
2022/07/16 15:19:52;;;;;;;;;;;33.80;60.00;;;;;;4989464;28;19926;-91
2022/07/16 15:22:23;;;;;;;;;;;33.80;60.00;;;;;;4957458;28;20322;-92
2022/07/16 15:25:11;;;;;;;;;;;33.40;59.80;;;;;;4940512;29;19926;-91
2022/07/16 15:27:49;;;;;;;;;;;33.90;60.00;;;;;;4993637;28;19940;-90
2022/07/16 15:30:33;;;;;;;;;;;33.80;60.20;;;;;;4977951;28;19923;-89
2022/07/16 15:36:34;;;;;;;;;;;33.60;59.80;;;;;;4966593;29;19934;-91